createdAt,value
2023-03-05T00:01:42.925Z,100.00
2023-03-05T00:04:13.231Z,100.00
2023-03-05T00:06:40.141Z,100.00
2023-03-05T00:09:07.161Z,100.00
2023-03-05T00:11:34.228Z,100.00
2023-03-05T00:14:03.636Z,100.00
2023-03-05T00:16:30.930Z,100.00
2023-03-05T00:18:59.233Z,100.00
2023-03-05T00:21:27.107Z,100.00
2023-03-05T00:23:54.617Z,100.00
2023-03-05T00:26:23.865Z,100.00
2023-03-05T00:28:51.999Z,100.00
2023-03-05T00:31:20.917Z,100.00
2023-03-05T00:33:55.070Z,100.00
2023-03-05T00:36:22.246Z,100.00
2023-03-05T00:38:49.129Z,100.00
2023-03-05T00:41:15.945Z,100.00
2023-03-05T00:43:42.838Z,100.00
2023-03-05T00:46:09.655Z,100.00
2023-03-05T00:48:36.601Z,100.00
2023-03-05T00:51:03.716Z,100.00
2023-03-05T00:53:30.539Z,100.00
2023-03-05T00:55:57.333Z,100.00
2023-03-05T00:58:24.134Z,100.00
2023-03-05T01:00:50.916Z,100.00
2023-03-05T01:03:20.464Z,100.00
2023-03-05T01:05:47.151Z,100.00
2023-03-05T01:08:14.118Z,100.00
2023-03-05T01:10:40.866Z,100.00
2023-03-05T01:13:07.670Z,100.00
2023-03-05T01:15:34.389Z,100.00
2023-03-05T01:18:01.452Z,100.00
2023-03-05T01:20:28.308Z,100.00
2023-03-05T01:22:55.065Z,100.00
2023-03-05T01:25:21.903Z,100.00
2023-03-05T01:27:48.616Z,100.00
2023-03-05T01:30:15.978Z,100.00
2023-03-05T01:32:43.265Z,100.00
2023-03-05T01:35:17.002Z,100.00
2023-03-05T01:37:43.720Z,100.00
2023-03-05T01:40:11.937Z,100.00
2023-03-05T01:42:38.776Z,100.00
2023-03-05T01:45:12.637Z,100.00
2023-03-05T01:47:40.004Z,100.00
2023-03-05T01:50:11.102Z,100.00
2023-03-05T01:52:39.889Z,100.00
2023-03-05T01:55:11.919Z,100.00
2023-03-05T01:57:45.189Z,100.00
2023-03-05T02:00:18.301Z,100.00
2023-03-05T02:02:46.639Z,100.00
2023-03-05T02:05:17.243Z,100.00
2023-03-05T02:07:45.310Z,100.00
2023-03-05T02:10:19.819Z,100.00
2023-03-05T02:12:48.432Z,100.00
2023-03-05T02:15:15.392Z,100.00
2023-03-05T02:17:42.203Z,100.00
2023-03-05T02:20:18.172Z,100.00
2023-03-05T02:22:44.925Z,100.00
2023-03-05T02:25:23.701Z,100.00
2023-03-05T02:28:04.060Z,100.00
2023-03-05T02:30:31.494Z,100.00
2023-03-05T02:32:58.835Z,100.00
2023-03-05T02:35:25.807Z,100.00
2023-03-05T02:37:52.562Z,100.00
2023-03-05T02:40:19.428Z,100.00
2023-03-05T02:42:46.843Z,100.00
2023-03-05T02:45:13.815Z,100.00
2023-03-05T02:47:40.559Z,100.00
2023-03-05T02:50:08.565Z,100.00
2023-03-05T02:52:35.303Z,100.00
2023-03-05T02:55:02.142Z,100.00
2023-03-05T02:57:28.845Z,100.00
2023-03-05T02:59:55.595Z,100.00
2023-03-05T03:02:22.733Z,100.00
2023-03-05T03:04:49.465Z,100.00
2023-03-05T03:07:16.556Z,100.00
2023-03-05T03:09:43.498Z,100.00
2023-03-05T03:12:11.262Z,100.00
2023-03-05T03:14:41.237Z,100.00
2023-03-05T03:17:18.443Z,100.00
2023-03-05T03:19:46.207Z,100.00
2023-03-05T03:22:14.566Z,100.00
2023-03-05T03:24:42.341Z,100.00
2023-03-05T03:27:09.670Z,100.00
2023-03-05T03:29:36.730Z,100.00
2023-03-05T03:32:04.839Z,100.00
2023-03-05T03:34:31.867Z,100.00
2023-03-05T03:36:58.540Z,100.00
2023-03-05T03:39:25.654Z,100.00
2023-03-05T03:41:53.618Z,100.00
2023-03-05T03:44:21.530Z,100.00
2023-03-05T03:46:50.037Z,100.00
2023-03-05T03:49:21.719Z,100.00
2023-03-05T03:51:49.339Z,100.00
2023-03-05T03:54:17.535Z,100.00
2023-03-05T03:56:44.496Z,100.00
2023-03-05T03:59:12.001Z,100.00
2023-03-05T04:01:38.791Z,100.00
2023-03-05T04:04:06.403Z,100.00
2023-03-05T04:06:33.783Z,100.00
2023-03-05T04:09:00.643Z,100.00
2023-03-05T04:11:27.405Z,100.00
2023-03-05T04:13:54.118Z,100.00
2023-03-05T04:16:20.885Z,100.00
2023-03-05T04:18:47.721Z,100.00
2023-03-05T04:21:14.557Z,100.00
2023-03-05T04:23:41.718Z,100.00
2023-03-05T04:26:08.385Z,100.00
2023-03-05T04:28:35.464Z,100.00
2023-03-05T04:31:02.919Z,100.00
2023-03-05T04:33:29.728Z,100.00
2023-03-05T04:35:56.785Z,100.00
2023-03-05T04:38:23.552Z,100.00
2023-03-05T04:40:50.341Z,100.00
2023-03-05T04:43:17.027Z,100.00
2023-03-05T04:45:44.151Z,100.00
2023-03-05T04:48:11.613Z,100.00
2023-03-05T04:50:38.693Z,100.00
2023-03-05T04:53:05.415Z,100.00
2023-03-05T04:55:32.120Z,100.00
2023-03-05T04:57:59.321Z,100.00
2023-03-05T05:00:26.123Z,100.00
2023-03-05T05:02:53.500Z,100.00
2023-03-05T05:05:25.870Z,100.00
2023-03-05T05:07:56.844Z,100.00
2023-03-05T05:10:24.973Z,100.00
2023-03-05T05:12:51.996Z,100.00
2023-03-05T05:15:18.867Z,100.00
2023-03-05T05:17:45.884Z,100.00
2023-03-05T05:20:14.394Z,100.00
2023-03-05T05:22:41.222Z,100.00
2023-03-05T05:25:08.640Z,100.00
2023-03-05T05:27:35.244Z,100.00
2023-03-05T05:30:02.143Z,100.00
2023-03-05T05:32:29.229Z,100.00
2023-03-05T05:34:59.055Z,100.00
2023-03-05T05:37:26.650Z,100.00
2023-03-05T05:39:53.608Z,100.00
2023-03-05T05:42:22.206Z,100.00
2023-03-05T05:44:49.465Z,100.00
2023-03-05T05:47:17.350Z,100.00
2023-03-05T05:49:43.976Z,100.00
2023-03-05T05:52:10.839Z,100.00
2023-03-05T05:54:37.422Z,100.00
2023-03-05T05:57:04.201Z,100.00
2023-03-05T05:59:30.932Z,100.00
2023-03-05T06:01:57.634Z,100.00
2023-03-05T06:04:24.202Z,100.00
2023-03-05T06:06:51.110Z,100.00
2023-03-05T06:09:17.667Z,100.00
2023-03-05T06:11:44.305Z,100.00
2023-03-05T06:14:12.657Z,100.00
2023-03-05T06:16:39.927Z,100.00
2023-03-05T06:19:06.683Z,100.00
2023-03-05T06:21:33.553Z,100.00
2023-03-05T06:24:00.415Z,100.00
2023-03-05T06:26:27.093Z,100.00
2023-03-05T06:28:54.338Z,100.00
2023-03-05T06:31:23.133Z,100.00
2023-03-05T06:33:50.027Z,100.00
2023-03-05T06:36:18.763Z,100.00
2023-03-05T06:38:45.403Z,100.00
2023-03-05T06:41:14.602Z,100.00
2023-03-05T06:43:43.202Z,100.00
2023-03-05T06:46:17.501Z,100.00
2023-03-05T06:48:44.794Z,100.00
2023-03-05T06:51:20.324Z,100.00
2023-03-05T06:53:49.371Z,100.00
2023-03-05T06:56:17.075Z,100.00
2023-03-05T06:58:45.896Z,100.00
2023-03-05T07:01:13.479Z,100.00
2023-03-05T07:03:40.714Z,100.00
2023-03-05T07:06:10.647Z,100.00
2023-03-05T07:08:38.085Z,100.00
2023-03-05T07:11:09.542Z,100.00
2023-03-05T07:13:36.335Z,100.00
2023-03-05T07:16:08.053Z,100.00
2023-03-05T07:18:35.393Z,100.00
2023-03-05T07:21:06.641Z,100.00
2023-03-05T07:23:34.620Z,100.00
2023-03-05T07:26:05.828Z,100.00
2023-03-05T07:28:33.649Z,100.00
2023-03-05T07:31:21.003Z,100.00
2023-03-05T07:33:50.997Z,100.00
2023-03-05T07:36:17.972Z,100.00
2023-03-05T07:38:44.873Z,100.00
2023-03-05T07:41:13.925Z,100.00
2023-03-05T07:43:40.878Z,100.00
2023-03-05T07:46:09.232Z,100.00
2023-03-05T07:48:36.155Z,100.00
2023-03-05T07:51:08.219Z,100.00
2023-03-05T07:53:35.007Z,100.00
2023-03-05T07:56:01.957Z,100.00
2023-03-05T07:58:29.028Z,100.00
2023-03-05T08:00:55.719Z,100.00
2023-03-05T08:03:22.548Z,100.00
2023-03-05T08:05:49.365Z,100.00
2023-03-05T08:08:16.618Z,100.00
2023-03-05T08:10:43.594Z,100.00
2023-03-05T08:13:10.505Z,100.00
2023-03-05T08:15:38.495Z,100.00
2023-03-05T08:18:05.553Z,100.00
2023-03-05T08:20:35.692Z,100.00
2023-03-05T08:23:03.424Z,100.00
2023-03-05T08:25:30.238Z,100.00
2023-03-05T08:27:57.094Z,100.00
2023-03-05T08:30:27.412Z,100.00
2023-03-05T08:32:54.839Z,100.00
2023-03-05T08:35:21.907Z,100.00
2023-03-05T08:37:48.822Z,100.00
2023-03-05T08:40:18.222Z,100.00
2023-03-05T08:42:45.183Z,100.00
2023-03-05T08:45:12.246Z,100.00
2023-03-05T08:47:39.237Z,100.00
2023-03-05T08:50:06.383Z,100.00
2023-03-05T08:52:33.225Z,100.00
2023-03-05T08:54:59.926Z,99.81
2023-03-05T08:57:26.589Z,96.57
2023-03-05T08:59:53.314Z,97.77
2023-03-05T09:02:19.923Z,97.42
2023-03-05T09:04:46.854Z,97.30
2023-03-05T09:07:13.501Z,97.02
2023-03-05T09:09:40.542Z,97.68
2023-03-05T09:12:07.451Z,97.89
2023-03-05T09:14:34.096Z,97.30
2023-03-05T09:17:02.307Z,95.39
2023-03-05T09:19:29.024Z,95.55
2023-03-05T09:21:57.110Z,92.65
2023-03-05T09:24:24.007Z,94.47
2023-03-05T09:26:51.024Z,94.08
2023-03-05T09:29:17.635Z,93.98
2023-03-05T09:31:44.412Z,90.73
2023-03-05T09:34:12.265Z,91.44
2023-03-05T09:36:39.036Z,90.05
2023-03-05T09:39:07.250Z,91.05
2023-03-05T09:41:52.062Z,87.54
2023-03-05T09:44:41.763Z,86.58
2023-03-05T09:47:38.345Z,83.76
2023-03-05T09:50:39.743Z,85.33
2023-03-05T09:53:23.297Z,86.61
2023-03-05T09:55:57.104Z,85.38
2023-03-05T09:58:39.581Z,85.08
2023-03-05T10:01:14.139Z,84.05
2023-03-05T10:03:57.692Z,87.06
2023-03-05T10:06:30.242Z,85.39
2023-03-05T10:08:58.233Z,85.29
2023-03-05T10:11:35.806Z,85.50
2023-03-05T10:14:03.419Z,85.00
2023-03-05T10:16:30.089Z,83.29
2023-03-05T10:19:21.919Z,84.39
2023-03-05T10:22:14.905Z,84.32
2023-03-05T10:24:45.365Z,86.28
2023-03-05T10:27:21.163Z,83.28
2023-03-05T10:30:29.595Z,84.77
2023-03-05T10:32:56.255Z,84.33
2023-03-05T10:36:06.169Z,83.57
2023-03-05T10:38:48.262Z,83.01
2023-03-05T10:41:31.116Z,83.45
2023-03-05T10:44:09.046Z,84.36
2023-03-05T10:46:37.325Z,79.69
2023-03-05T10:49:16.327Z,81.34
2023-03-05T10:52:04.921Z,81.34
2023-03-05T10:54:33.694Z,81.69
2023-03-05T10:57:12.326Z,81.57
2023-03-05T11:00:07.995Z,82.15
2023-03-05T11:02:54.191Z,79.99
2023-03-05T11:05:39.226Z,77.95
2023-03-05T11:08:36.762Z,77.93
2023-03-05T11:11:18.480Z,77.81
2023-03-05T11:13:55.642Z,76.56
2023-03-05T11:16:30.566Z,77.99
2023-03-05T11:19:30.075Z,75.93
2023-03-05T11:22:17.909Z,77.97
2023-03-05T11:24:47.919Z,77.71
2023-03-05T11:27:32.771Z,79.93
2023-03-05T11:29:59.720Z,77.78
2023-03-05T11:32:28.437Z,78.93
2023-03-05T11:34:56.456Z,79.22
2023-03-05T11:37:29.620Z,78.36
2023-03-05T11:40:15.240Z,79.02
2023-03-05T11:42:42.442Z,79.45
2023-03-05T11:45:16.741Z,80.28
2023-03-05T11:47:47.751Z,78.59
2023-03-05T11:50:32.844Z,80.27
2023-03-05T11:53:09.737Z,81.75
2023-03-05T11:55:48.116Z,82.51
2023-03-05T11:58:39.995Z,80.88
2023-03-05T12:01:20.895Z,81.39
2023-03-05T12:03:48.168Z,78.08
2023-03-05T12:06:28.274Z,77.42
2023-03-05T12:08:57.668Z,77.98
2023-03-05T12:11:28.306Z,80.83
2023-03-05T12:13:59.695Z,83.13
2023-03-05T12:16:32.422Z,80.55
2023-03-05T12:19:28.591Z,79.24
2023-03-05T12:21:55.401Z,78.97
2023-03-05T12:24:27.905Z,77.31
2023-03-05T12:27:04.281Z,78.22
2023-03-05T12:29:47.828Z,76.22
2023-03-05T12:32:25.597Z,77.18
2023-03-05T12:34:59.707Z,76.19
2023-03-05T12:37:26.379Z,76.97
2023-03-05T12:40:04.486Z,76.39
2023-03-05T12:42:31.553Z,78.50
2023-03-05T12:45:14.568Z,78.32
2023-03-05T12:47:45.808Z,75.33
2023-03-05T12:50:27.968Z,74.17
2023-03-05T12:53:02.161Z,76.30
2023-03-05T12:55:33.533Z,73.68
2023-03-05T12:58:06.910Z,71.05
2023-03-05T13:00:51.917Z,74.19
2023-03-05T13:03:22.740Z,76.25
2023-03-05T13:06:00.687Z,77.17
2023-03-05T13:08:32.775Z,76.12
2023-03-05T13:11:01.953Z,77.71
2023-03-05T13:13:36.591Z,76.59
2023-03-05T13:16:04.340Z,76.17
2023-03-05T13:18:33.125Z,77.08
2023-03-05T13:21:14.510Z,77.42
2023-03-05T13:23:58.286Z,77.60
2023-03-05T13:26:38.822Z,78.30
2023-03-05T13:29:30.836Z,79.37
2023-03-05T13:32:03.403Z,76.89
2023-03-05T13:34:46.203Z,77.30
2023-03-05T13:37:19.247Z,77.77
2023-03-05T13:40:01.099Z,77.27
2023-03-05T13:42:32.404Z,78.56
2023-03-05T13:45:01.863Z,78.28
2023-03-05T13:47:32.047Z,78.01
2023-03-05T13:50:05.772Z,77.33
2023-03-05T13:52:36.927Z,78.23
2023-03-05T13:55:11.338Z,80.04
2023-03-05T13:57:46.305Z,80.40
2023-03-05T14:00:35.363Z,81.02
2023-03-05T14:03:21.936Z,78.96
2023-03-05T14:05:50.197Z,79.73
2023-03-05T14:08:26.684Z,79.96
2023-03-05T14:10:54.557Z,82.24
2023-03-05T14:13:23.968Z,82.98
2023-03-05T14:16:28.144Z,83.03
2023-03-05T14:18:58.580Z,84.35
2023-03-05T14:21:25.803Z,85.34
2023-03-05T14:23:55.039Z,85.58
2023-03-05T14:26:35.225Z,85.79
2023-03-05T14:29:07.689Z,85.47
2023-03-05T14:31:56.540Z,86.88
2023-03-05T14:34:35.937Z,86.59
2023-03-05T14:37:05.117Z,85.68
2023-03-05T14:39:46.498Z,86.88
2023-03-05T14:42:38.710Z,88.15
2023-03-05T14:45:18.446Z,87.11
2023-03-05T14:47:45.867Z,87.43
2023-03-05T14:50:17.770Z,86.72
2023-03-05T14:52:45.391Z,87.23
2023-03-05T14:55:20.765Z,88.10
2023-03-05T14:57:48.604Z,88.65
2023-03-05T15:00:21.122Z,88.07
2023-03-05T15:02:48.412Z,89.38
2023-03-05T15:05:16.446Z,89.81
2023-03-05T15:07:44.233Z,89.74
2023-03-05T15:10:23.432Z,89.22
2023-03-05T15:12:53.256Z,90.60
2023-03-05T15:15:21.438Z,90.98
2023-03-05T15:17:51.828Z,90.00
2023-03-05T15:20:21.935Z,90.32
2023-03-05T15:22:48.693Z,91.00
2023-03-05T15:25:16.005Z,92.50
2023-03-05T15:27:42.838Z,93.58
2023-03-05T15:30:33.767Z,94.55
2023-03-05T15:33:02.868Z,95.31
2023-03-05T15:35:30.179Z,96.56
2023-03-05T15:37:58.123Z,97.09
2023-03-05T15:40:25.388Z,97.71
2023-03-05T15:42:52.303Z,98.13
2023-03-05T15:45:19.302Z,99.12
2023-03-05T15:47:48.976Z,99.76
2023-03-05T15:50:15.798Z,100.00
2023-03-05T15:52:42.520Z,100.00
2023-03-05T15:55:09.749Z,100.00
2023-03-05T15:57:37.818Z,100.00
2023-03-05T16:00:08.273Z,100.00
2023-03-05T16:02:35.026Z,100.00
2023-03-05T16:05:01.783Z,100.00
2023-03-05T16:07:29.571Z,100.00
2023-03-05T16:09:57.409Z,100.00
2023-03-05T16:12:27.679Z,100.00
2023-03-05T16:14:54.457Z,100.00
2023-03-05T16:17:23.343Z,100.00
2023-03-05T16:19:53.311Z,100.00
2023-03-05T16:22:20.046Z,100.00
2023-03-05T16:24:46.837Z,100.00
2023-03-05T16:27:13.571Z,100.00
2023-03-05T16:29:40.675Z,100.00
2023-03-05T16:32:07.602Z,100.00
2023-03-05T16:34:35.001Z,100.00
2023-03-05T16:37:04.667Z,100.00
2023-03-05T16:39:31.634Z,100.00
2023-03-05T16:41:58.624Z,100.00
2023-03-05T16:44:25.426Z,100.00
2023-03-05T16:46:53.997Z,100.00
2023-03-05T16:49:21.123Z,100.00
2023-03-05T16:51:48.325Z,100.00
2023-03-05T16:54:15.226Z,100.00
2023-03-05T16:56:41.993Z,100.00
2023-03-05T16:59:08.777Z,100.00
2023-03-05T17:01:35.656Z,100.00
2023-03-05T17:04:02.470Z,100.00
2023-03-05T17:06:31.102Z,100.00
2023-03-05T17:08:58.014Z,100.00
2023-03-05T17:11:25.977Z,100.00
2023-03-05T17:13:52.857Z,100.00
2023-03-05T17:16:21.137Z,100.00
2023-03-05T17:18:48.754Z,100.00
2023-03-05T17:21:15.972Z,100.00
2023-03-05T17:23:43.151Z,100.00
2023-03-05T17:26:12.246Z,100.00
2023-03-05T17:28:39.591Z,100.00
2023-03-05T17:31:06.413Z,100.00
2023-03-05T17:33:34.807Z,100.00
2023-03-05T17:36:01.919Z,100.00
2023-03-05T17:38:28.684Z,100.00
2023-03-05T17:40:55.505Z,100.00
2023-03-05T17:43:22.698Z,100.00
2023-03-05T17:45:49.622Z,100.00
2023-03-05T17:48:16.469Z,100.00
2023-03-05T17:50:45.126Z,100.00
2023-03-05T17:53:12.619Z,100.00
2023-03-05T17:55:40.260Z,100.00
2023-03-05T17:58:07.584Z,100.00
2023-03-05T18:00:35.311Z,100.00
2023-03-05T18:03:02.706Z,100.00
2023-03-05T18:05:29.557Z,100.00
2023-03-05T18:07:56.508Z,100.00
2023-03-05T18:10:26.009Z,100.00
2023-03-05T18:12:53.233Z,100.00
2023-03-05T18:15:21.720Z,100.00
2023-03-05T18:17:48.469Z,100.00
2023-03-05T18:20:30.283Z,100.00
2023-03-05T18:22:57.743Z,100.00
2023-03-05T18:25:31.004Z,100.00
2023-03-05T18:28:12.263Z,100.00
2023-03-05T18:30:40.763Z,100.00
2023-03-05T18:33:08.354Z,100.00
2023-03-05T18:35:35.151Z,100.00
2023-03-05T18:38:01.919Z,100.00
2023-03-05T18:40:32.612Z,100.00
2023-03-05T18:43:00.920Z,100.00
2023-03-05T18:45:28.016Z,100.00
2023-03-05T18:47:56.679Z,100.00
2023-03-05T18:50:25.888Z,100.00
2023-03-05T18:52:52.928Z,100.00
2023-03-05T18:55:28.400Z,100.00
2023-03-05T18:57:55.510Z,100.00
2023-03-05T19:00:32.200Z,100.00
2023-03-05T19:02:59.320Z,100.00
2023-03-05T19:05:26.727Z,100.00
2023-03-05T19:07:54.269Z,100.00
2023-03-05T19:10:22.706Z,100.00
2023-03-05T19:12:55.628Z,100.00
2023-03-05T19:15:22.844Z,100.00
2023-03-05T19:17:50.356Z,100.00
2023-03-05T19:20:18.844Z,100.00
2023-03-05T19:22:45.694Z,100.00
2023-03-05T19:25:12.791Z,100.00
2023-03-05T19:27:40.396Z,100.00
2023-03-05T19:30:08.302Z,100.00
2023-03-05T19:32:35.456Z,100.00
2023-03-05T19:35:02.851Z,100.00
2023-03-05T19:37:31.696Z,100.00
2023-03-05T19:39:58.438Z,100.00
2023-03-05T19:42:25.165Z,100.00
2023-03-05T19:44:51.829Z,100.00
2023-03-05T19:47:18.441Z,100.00
2023-03-05T19:49:45.405Z,100.00
2023-03-05T19:52:14.025Z,100.00
2023-03-05T19:54:40.762Z,100.00
2023-03-05T19:57:07.806Z,100.00
2023-03-05T19:59:34.695Z,100.00
2023-03-05T20:02:01.423Z,100.00
2023-03-05T20:04:28.234Z,100.00
2023-03-05T20:06:55.045Z,100.00
2023-03-05T20:09:22.039Z,100.00
2023-03-05T20:11:48.700Z,100.00
2023-03-05T20:14:15.355Z,100.00
2023-03-05T20:16:43.476Z,100.00
2023-03-05T20:19:16.340Z,100.00
2023-03-05T20:21:44.235Z,100.00
2023-03-05T20:24:17.128Z,100.00
2023-03-05T20:26:45.846Z,100.00
2023-03-05T20:29:15.493Z,100.00
2023-03-05T20:31:44.288Z,100.00
2023-03-05T20:34:13.607Z,100.00
2023-03-05T20:36:40.565Z,100.00
2023-03-05T20:39:08.035Z,100.00
2023-03-05T20:41:36.899Z,100.00
2023-03-05T20:44:03.961Z,100.00
2023-03-05T20:46:33.349Z,100.00
2023-03-05T20:49:01.814Z,100.00
2023-03-05T20:51:32.163Z,100.00
2023-03-05T20:54:03.657Z,100.00
2023-03-05T20:56:32.610Z,100.00
2023-03-05T20:59:02.874Z,100.00
2023-03-05T21:01:29.714Z,100.00
2023-03-05T21:03:59.937Z,100.00
2023-03-05T21:06:28.048Z,100.00
2023-03-05T21:08:54.995Z,100.00
2023-03-05T21:11:22.018Z,100.00
2023-03-05T21:13:48.769Z,100.00
2023-03-05T21:16:18.252Z,100.00
2023-03-05T21:18:45.204Z,100.00
2023-03-05T21:21:11.966Z,100.00
2023-03-05T21:23:38.609Z,100.00
2023-03-05T21:26:05.543Z,100.00
2023-03-05T21:28:33.238Z,100.00
2023-03-05T21:31:06.569Z,100.00
2023-03-05T21:33:33.206Z,100.00
2023-03-05T21:36:00.046Z,100.00
2023-03-05T21:38:30.467Z,100.00
2023-03-05T21:40:58.673Z,100.00
2023-03-05T21:43:26.526Z,100.00
2023-03-05T21:45:54.748Z,100.00
2023-03-05T21:48:22.234Z,100.00
2023-03-05T21:50:49.295Z,100.00
2023-03-05T21:53:16.825Z,100.00
2023-03-05T21:55:59.062Z,100.00
2023-03-05T21:58:25.725Z,100.00
2023-03-05T22:00:52.498Z,100.00
2023-03-05T22:03:19.119Z,100.00
2023-03-05T22:05:45.850Z,100.00
2023-03-05T22:08:12.497Z,100.00
2023-03-05T22:10:41.259Z,100.00
2023-03-05T22:13:12.603Z,100.00
2023-03-05T22:15:46.515Z,100.00
2023-03-05T22:18:14.506Z,100.00
2023-03-05T22:20:41.691Z,100.00
2023-03-05T22:23:08.736Z,100.00
2023-03-05T22:25:35.829Z,100.00
2023-03-05T22:28:04.164Z,100.00
2023-03-05T22:30:32.176Z,100.00
2023-03-05T22:33:01.068Z,100.00
2023-03-05T22:35:27.953Z,100.00
2023-03-05T22:37:54.565Z,100.00
2023-03-05T22:40:22.133Z,100.00
2023-03-05T22:42:49.182Z,100.00
2023-03-05T22:45:17.724Z,100.00
2023-03-05T22:47:49.401Z,100.00
2023-03-05T22:50:19.783Z,100.00
2023-03-05T22:52:46.674Z,100.00
2023-03-05T22:55:15.097Z,100.00
2023-03-05T22:57:42.498Z,100.00
2023-03-05T23:00:14.532Z,100.00
2023-03-05T23:02:42.705Z,100.00
2023-03-05T23:05:10.696Z,100.00
2023-03-05T23:07:40.250Z,100.00
2023-03-05T23:10:12.891Z,100.00
2023-03-05T23:12:44.189Z,100.00
2023-03-05T23:15:13.614Z,100.00
2023-03-05T23:17:40.564Z,100.00
2023-03-05T23:20:10.563Z,100.00
2023-03-05T23:22:39.051Z,100.00
2023-03-05T23:25:12.207Z,100.00
2023-03-05T23:27:38.852Z,100.00
2023-03-05T23:30:17.689Z,100.00
2023-03-05T23:32:54.903Z,100.00
2023-03-05T23:35:30.565Z,100.00
2023-03-05T23:37:58.584Z,100.00
2023-03-05T23:40:27.775Z,100.00
2023-03-05T23:42:54.837Z,100.00
2023-03-05T23:45:22.575Z,100.00
2023-03-05T23:47:49.574Z,100.00
2023-03-05T23:50:23.767Z,100.00
2023-03-05T23:52:50.929Z,100.00
2023-03-05T23:55:42.392Z,100.00
2023-03-05T23:58:09.127Z,100.00
